Terminal Aerodrome Forecast
Issued by NWS Knoxville/Tri Cities, TN

Home | Current Version | Previous Version | Text Only | Print | Product List | Glossary On
Versions: 1 2 3 4 5 6 7 8 9 10 11 12 13 14 15 16 17 18 19 20 21 22 23 24 25 26 27 28 29 30 31 32 33 34 35 36 37 38 39 40 41 42 43 44 45 46 47
000
FTUS44 KMRX 181138
TAFTRI
TAF
KTRI 181138Z 1812/1912 VRB03KT P6SM SCT250
     FM190000 00000KT P6SM SKC
     FM190800 00000KT 3SM BR BKN002=

USA.gov is the U.S. government's official web portal to all federal, state and local government web resources and services.